sensor_id;sensor_type;location;lat;lon;timestamp;P1;durP1;ratioP1;P2;durP2;ratioP2
10811;SDS011;5458;51.496;7.334;2023-03-11T00:02:23;5.30;;;4.80;;
10811;SDS011;5458;51.496;7.334;2023-03-11T00:04:48;4.90;;;4.47;;
10811;SDS011;5458;51.496;7.334;2023-03-11T00:07:14;4.60;;;4.30;;
10811;SDS011;5458;51.496;7.334;2023-03-11T00:09:40;4.43;;;4.13;;
10811;SDS011;5458;51.496;7.334;2023-03-11T00:12:05;4.20;;;3.83;;
10811;SDS011;5458;51.496;7.334;2023-03-11T00:14:31;3.70;;;3.40;;
10811;SDS011;5458;51.496;7.334;2023-03-11T00:16:57;3.88;;;3.58;;
10811;SDS011;5458;51.496;7.334;2023-03-11T00:19:22;3.20;;;3.00;;
10811;SDS011;5458;51.496;7.334;2023-03-11T00:21:48;3.63;;;3.33;;
10811;SDS011;5458;51.496;7.334;2023-03-11T00:24:13;2.97;;;2.77;;
10811;SDS011;5458;51.496;7.334;2023-03-11T00:26:39;3.43;;;3.13;;
10811;SDS011;5458;51.496;7.334;2023-03-11T00:29:05;2.67;;;2.50;;
10811;SDS011;5458;51.496;7.334;2023-03-11T00:31:30;2.83;;;2.72;;
10811;SDS011;5458;51.496;7.334;2023-03-11T00:33:56;2.97;;;2.80;;
10811;SDS011;5458;51.496;7.334;2023-03-11T00:36:31;4.82;;;3.38;;
10811;SDS011;5458;51.496;7.334;2023-03-11T00:38:58;3.20;;;2.97;;
10811;SDS011;5458;51.496;7.334;2023-03-11T00:41:26;3.03;;;2.80;;
10811;SDS011;5458;51.496;7.334;2023-03-11T00:43:52;3.67;;;3.23;;
10811;SDS011;5458;51.496;7.334;2023-03-11T00:46:18;3.07;;;2.87;;
10811;SDS011;5458;51.496;7.334;2023-03-11T00:48:44;11.20;;;3.17;;
10811;SDS011;5458;51.496;7.334;2023-03-11T00:51:10;3.22;;;2.95;;
10811;SDS011;5458;51.496;7.334;2023-03-11T00:53:39;3.80;;;3.50;;
10811;SDS011;5458;51.496;7.334;2023-03-11T00:56:14;4.00;;;3.70;;
10811;SDS011;5458;51.496;7.334;2023-03-11T00:58:42;3.30;;;3.10;;
10811;SDS011;5458;51.496;7.334;2023-03-11T01:01:09;3.13;;;2.90;;
10811;SDS011;5458;51.496;7.334;2023-03-11T01:03:37;3.27;;;2.97;;
10811;SDS011;5458;51.496;7.334;2023-03-11T01:06:04;4.17;;;3.07;;
10811;SDS011;5458;51.496;7.334;2023-03-11T01:08:30;4.03;;;3.47;;
10811;SDS011;5458;51.496;7.334;2023-03-11T01:10:56;3.40;;;3.10;;
10811;SDS011;5458;51.496;7.334;2023-03-11T01:13:25;3.22;;;3.00;;
10811;SDS011;5458;51.496;7.334;2023-03-11T01:15:51;3.90;;;3.53;;
10811;SDS011;5458;51.496;7.334;2023-03-11T01:18:17;3.00;;;2.80;;
10811;SDS011;5458;51.496;7.334;2023-03-11T01:20:44;2.97;;;2.77;;
10811;SDS011;5458;51.496;7.334;2023-03-11T01:23:11;3.83;;;3.30;;
10811;SDS011;5458;51.496;7.334;2023-03-11T01:25:37;3.58;;;3.05;;
10811;SDS011;5458;51.496;7.334;2023-03-11T01:28:03;5.75;;;3.13;;
10811;SDS011;5458;51.496;7.334;2023-03-11T01:30:29;3.53;;;3.00;;
10811;SDS011;5458;51.496;7.334;2023-03-11T01:32:56;3.80;;;3.07;;
10811;SDS011;5458;51.496;7.334;2023-03-11T01:35:23;3.43;;;3.23;;
10811;SDS011;5458;51.496;7.334;2023-03-11T01:37:50;3.70;;;3.45;;
10811;SDS011;5458;51.496;7.334;2023-03-11T01:40:22;4.03;;;3.73;;
10811;SDS011;5458;51.496;7.334;2023-03-11T01:43:00;3.38;;;3.17;;
10811;SDS011;5458;51.496;7.334;2023-03-11T01:45:37;5.17;;;4.10;;
10811;SDS011;5458;51.496;7.334;2023-03-11T01:48:26;3.90;;;3.60;;
10811;SDS011;5458;51.496;7.334;2023-03-11T01:50:53;4.67;;;4.37;;
10811;SDS011;5458;51.496;7.334;2023-03-11T01:53:19;5.60;;;4.80;;
10811;SDS011;5458;51.496;7.334;2023-03-11T01:55:48;6.00;;;4.72;;
10811;SDS011;5458;51.496;7.334;2023-03-11T01:58:15;5.77;;;4.83;;
10811;SDS011;5458;51.496;7.334;2023-03-11T02:00:43;4.80;;;4.28;;
10811;SDS011;5458;51.496;7.334;2023-03-11T02:03:15;5.10;;;3.80;;
10811;SDS011;5458;51.496;7.334;2023-03-11T02:05:50;4.20;;;3.90;;
10811;SDS011;5458;51.496;7.334;2023-03-11T02:08:17;4.37;;;3.93;;
10811;SDS011;5458;51.496;7.334;2023-03-11T02:10:43;6.40;;;3.27;;
10811;SDS011;5458;51.496;7.334;2023-03-11T02:13:10;7.30;;;3.22;;
10811;SDS011;5458;51.496;7.334;2023-03-11T02:15:36;4.10;;;2.70;;
10811;SDS011;5458;51.496;7.334;2023-03-11T02:18:02;2.80;;;2.60;;
10811;SDS011;5458;51.496;7.334;2023-03-11T02:23:23;3.63;;;2.63;;
10811;SDS011;5458;51.496;7.334;2023-03-11T02:28:25;4.18;;;3.60;;
10811;SDS011;5458;51.496;7.334;2023-03-11T02:30:52;4.10;;;2.80;;
10811;SDS011;5458;51.496;7.334;2023-03-11T02:33:20;5.20;;;4.28;;
10811;SDS011;5458;51.496;7.334;2023-03-11T02:35:50;3.88;;;3.38;;
10811;SDS011;5458;51.496;7.334;2023-03-11T02:38:16;3.25;;;3.05;;
10811;SDS011;5458;51.496;7.334;2023-03-11T02:40:47;6.70;;;3.30;;
10811;SDS011;5458;51.496;7.334;2023-03-11T02:43:14;4.25;;;3.22;;
10811;SDS011;5458;51.496;7.334;2023-03-11T02:45:42;3.37;;;3.00;;
10811;SDS011;5458;51.496;7.334;2023-03-11T02:48:09;6.38;;;3.20;;
10811;SDS011;5458;51.496;7.334;2023-03-11T02:50:36;3.30;;;2.87;;
10811;SDS011;5458;51.496;7.334;2023-03-11T02:53:04;3.22;;;2.92;;
10811;SDS011;5458;51.496;7.334;2023-03-11T02:55:30;3.30;;;3.00;;
10811;SDS011;5458;51.496;7.334;2023-03-11T02:57:56;3.90;;;3.55;;
10811;SDS011;5458;51.496;7.334;2023-03-11T03:00:21;5.85;;;3.38;;
10811;SDS011;5458;51.496;7.334;2023-03-11T03:02:47;4.35;;;3.47;;
10811;SDS011;5458;51.496;7.334;2023-03-11T03:05:16;5.63;;;3.03;;
10811;SDS011;5458;51.496;7.334;2023-03-11T03:07:44;4.97;;;3.30;;
10811;SDS011;5458;51.496;7.334;2023-03-11T03:10:14;6.20;;;3.70;;
10811;SDS011;5458;51.496;7.334;2023-03-11T03:12:40;7.17;;;2.87;;
10811;SDS011;5458;51.496;7.334;2023-03-11T03:15:06;3.63;;;3.33;;
10811;SDS011;5458;51.496;7.334;2023-03-11T03:17:33;5.32;;;3.45;;
10811;SDS011;5458;51.496;7.334;2023-03-11T03:19:58;4.17;;;3.10;;
10811;SDS011;5458;51.496;7.334;2023-03-11T03:22:24;6.10;;;3.60;;
10811;SDS011;5458;51.496;7.334;2023-03-11T03:24:51;5.00;;;3.47;;
10811;SDS011;5458;51.496;7.334;2023-03-11T03:27:17;5.87;;;3.20;;
10811;SDS011;5458;51.496;7.334;2023-03-11T03:29:43;4.13;;;3.83;;
10811;SDS011;5458;51.496;7.334;2023-03-11T03:32:09;4.67;;;3.43;;
10811;SDS011;5458;51.496;7.334;2023-03-11T03:34:34;7.23;;;3.87;;
10811;SDS011;5458;51.496;7.334;2023-03-11T03:37:00;4.35;;;3.85;;
10811;SDS011;5458;51.496;7.334;2023-03-11T03:39:26;7.73;;;3.87;;
10811;SDS011;5458;51.496;7.334;2023-03-11T03:41:51;7.90;;;3.80;;
10811;SDS011;5458;51.496;7.334;2023-03-11T03:44:17;4.73;;;3.33;;
10811;SDS011;5458;51.496;7.334;2023-03-11T03:46:42;3.88;;;3.55;;
10811;SDS011;5458;51.496;7.334;2023-03-11T03:49:08;6.65;;;3.65;;
10811;SDS011;5458;51.496;7.334;2023-03-11T03:51:33;7.57;;;3.83;;
10811;SDS011;5458;51.496;7.334;2023-03-11T03:53:59;7.32;;;3.88;;
10811;SDS011;5458;51.496;7.334;2023-03-11T03:56:24;5.10;;;3.20;;
10811;SDS011;5458;51.496;7.334;2023-03-11T03:58:50;5.28;;;3.45;;
10811;SDS011;5458;51.496;7.334;2023-03-11T04:01:16;6.90;;;3.58;;
10811;SDS011;5458;51.496;7.334;2023-03-11T04:03:42;5.32;;;2.90;;
10811;SDS011;5458;51.496;7.334;2023-03-11T04:06:09;7.88;;;3.53;;
10811;SDS011;5458;51.496;7.334;2023-03-11T04:08:39;5.25;;;3.40;;
10811;SDS011;5458;51.496;7.334;2023-03-11T04:11:05;4.80;;;3.15;;
10811;SDS011;5458;51.496;7.334;2023-03-11T04:13:31;7.75;;;3.50;;
10811;SDS011;5458;51.496;7.334;2023-03-11T04:15:56;9.60;;;4.05;;
10811;SDS011;5458;51.496;7.334;2023-03-11T04:18:22;4.28;;;3.08;;
10811;SDS011;5458;51.496;7.334;2023-03-11T04:20:48;4.80;;;3.30;;
10811;SDS011;5458;51.496;7.334;2023-03-11T04:23:14;8.07;;;3.55;;
10811;SDS011;5458;51.496;7.334;2023-03-11T04:25:40;6.82;;;3.40;;
10811;SDS011;5458;51.496;7.334;2023-03-11T04:28:05;5.03;;;3.33;;
10811;SDS011;5458;51.496;7.334;2023-03-11T04:30:31;9.13;;;3.33;;
10811;SDS011;5458;51.496;7.334;2023-03-11T04:32:56;7.13;;;3.47;;
10811;SDS011;5458;51.496;7.334;2023-03-11T04:35:22;5.38;;;3.45;;
10811;SDS011;5458;51.496;7.334;2023-03-11T04:37:47;8.82;;;3.78;;
10811;SDS011;5458;51.496;7.334;2023-03-11T04:40:13;7.40;;;3.28;;
10811;SDS011;5458;51.496;7.334;2023-03-11T04:42:39;6.37;;;3.40;;
10811;SDS011;5458;51.496;7.334;2023-03-11T04:45:05;5.68;;;3.08;;
10811;SDS011;5458;51.496;7.334;2023-03-11T04:47:31;6.40;;;3.00;;
10811;SDS011;5458;51.496;7.334;2023-03-11T04:49:57;4.00;;;2.92;;
10811;SDS011;5458;51.496;7.334;2023-03-11T04:52:22;3.50;;;3.13;;
10811;SDS011;5458;51.496;7.334;2023-03-11T04:54:48;6.50;;;3.03;;
10811;SDS011;5458;51.496;7.334;2023-03-11T04:57:13;7.37;;;3.40;;
10811;SDS011;5458;51.496;7.334;2023-03-11T04:59:39;5.55;;;3.17;;
10811;SDS011;5458;51.496;7.334;2023-03-11T05:02:05;5.13;;;3.30;;
10811;SDS011;5458;51.496;7.334;2023-03-11T05:04:30;6.23;;;3.33;;
10811;SDS011;5458;51.496;7.334;2023-03-11T05:06:56;7.83;;;3.70;;
10811;SDS011;5458;51.496;7.334;2023-03-11T05:09:21;4.35;;;2.80;;
10811;SDS011;5458;51.496;7.334;2023-03-11T05:11:47;4.70;;;3.83;;
10811;SDS011;5458;51.496;7.334;2023-03-11T05:14:12;10.20;;;3.50;;
10811;SDS011;5458;51.496;7.334;2023-03-11T05:16:38;6.10;;;3.30;;
10811;SDS011;5458;51.496;7.334;2023-03-11T05:19:03;9.40;;;3.93;;
10811;SDS011;5458;51.496;7.334;2023-03-11T05:21:49;6.03;;;3.47;;
10811;SDS011;5458;51.496;7.334;2023-03-11T05:24:15;4.40;;;3.03;;
10811;SDS011;5458;51.496;7.334;2023-03-11T05:26:40;8.60;;;3.00;;
10811;SDS011;5458;51.496;7.334;2023-03-11T05:29:06;4.05;;;2.67;;
10811;SDS011;5458;51.496;7.334;2023-03-11T05:31:31;4.47;;;3.40;;
10811;SDS011;5458;51.496;7.334;2023-03-11T05:33:57;3.93;;;2.60;;
10811;SDS011;5458;51.496;7.334;2023-03-11T05:36:22;5.97;;;2.88;;
10811;SDS011;5458;51.496;7.334;2023-03-11T05:38:48;7.68;;;3.17;;
10811;SDS011;5458;51.496;7.334;2023-03-11T05:41:13;8.07;;;3.15;;
10811;SDS011;5458;51.496;7.334;2023-03-11T05:43:39;4.88;;;3.65;;
10811;SDS011;5458;51.496;7.334;2023-03-11T05:46:04;4.68;;;2.92;;
10811;SDS011;5458;51.496;7.334;2023-03-11T05:48:30;3.73;;;3.17;;
10811;SDS011;5458;51.496;7.334;2023-03-11T05:50:56;8.10;;;3.67;;
10811;SDS011;5458;51.496;7.334;2023-03-11T05:53:21;5.40;;;3.85;;
10811;SDS011;5458;51.496;7.334;2023-03-11T05:55:56;6.80;;;3.87;;
10811;SDS011;5458;51.496;7.334;2023-03-11T05:58:22;9.40;;;3.20;;
10811;SDS011;5458;51.496;7.334;2023-03-11T06:00:48;7.15;;;3.58;;
10811;SDS011;5458;51.496;7.334;2023-03-11T06:03:14;6.87;;;3.30;;
10811;SDS011;5458;51.496;7.334;2023-03-11T06:05:48;7.78;;;3.70;;
10811;SDS011;5458;51.496;7.334;2023-03-11T06:08:14;4.97;;;3.13;;
10811;SDS011;5458;51.496;7.334;2023-03-11T06:10:41;4.90;;;3.40;;
10811;SDS011;5458;51.496;7.334;2023-03-11T06:13:07;7.18;;;3.58;;
10811;SDS011;5458;51.496;7.334;2023-03-11T06:15:33;7.67;;;3.23;;
10811;SDS011;5458;51.496;7.334;2023-03-11T06:17:59;6.20;;;3.03;;
10811;SDS011;5458;51.496;7.334;2023-03-11T06:20:24;5.65;;;3.45;;
10811;SDS011;5458;51.496;7.334;2023-03-11T06:22:50;4.47;;;3.08;;
10811;SDS011;5458;51.496;7.334;2023-03-11T06:25:16;7.63;;;3.78;;
10811;SDS011;5458;51.496;7.334;2023-03-11T06:27:42;4.63;;;3.35;;
10811;SDS011;5458;51.496;7.334;2023-03-11T06:30:12;5.25;;;3.15;;
10811;SDS011;5458;51.496;7.334;2023-03-11T06:32:38;4.53;;;3.30;;
10811;SDS011;5458;51.496;7.334;2023-03-11T06:35:04;3.00;;;2.80;;
10811;SDS011;5458;51.496;7.334;2023-03-11T06:37:29;6.83;;;3.30;;
10811;SDS011;5458;51.496;7.334;2023-03-11T06:39:55;5.23;;;3.00;;
10811;SDS011;5458;51.496;7.334;2023-03-11T06:42:21;5.95;;;3.53;;
10811;SDS011;5458;51.496;7.334;2023-03-11T06:44:48;4.00;;;2.97;;
10811;SDS011;5458;51.496;7.334;2023-03-11T06:47:14;5.13;;;2.95;;
10811;SDS011;5458;51.496;7.334;2023-03-11T06:49:40;5.28;;;3.10;;
10811;SDS011;5458;51.496;7.334;2023-03-11T06:52:06;4.32;;;3.20;;
10811;SDS011;5458;51.496;7.334;2023-03-11T06:54:33;4.63;;;3.55;;
10811;SDS011;5458;51.496;7.334;2023-03-11T06:56:59;3.63;;;3.10;;
10811;SDS011;5458;51.496;7.334;2023-03-11T06:59:24;5.73;;;3.17;;
10811;SDS011;5458;51.496;7.334;2023-03-11T07:01:52;5.68;;;3.50;;
10811;SDS011;5458;51.496;7.334;2023-03-11T07:04:18;6.67;;;3.97;;
10811;SDS011;5458;51.496;7.334;2023-03-11T07:06:44;6.97;;;4.30;;
10811;SDS011;5458;51.496;7.334;2023-03-11T07:09:09;6.60;;;3.63;;
10811;SDS011;5458;51.496;7.334;2023-03-11T07:11:35;4.30;;;3.55;;
10811;SDS011;5458;51.496;7.334;2023-03-11T07:14:01;5.03;;;3.25;;
10811;SDS011;5458;51.496;7.334;2023-03-11T07:16:27;4.72;;;3.65;;
10811;SDS011;5458;51.496;7.334;2023-03-11T07:18:55;5.65;;;3.55;;
10811;SDS011;5458;51.496;7.334;2023-03-11T07:21:25;4.03;;;3.33;;
10811;SDS011;5458;51.496;7.334;2023-03-11T07:23:52;3.40;;;2.80;;
10811;SDS011;5458;51.496;7.334;2023-03-11T07:26:18;6.75;;;3.10;;
10811;SDS011;5458;51.496;7.334;2023-03-11T07:28:44;4.60;;;2.70;;
10811;SDS011;5458;51.496;7.334;2023-03-11T07:31:11;6.07;;;2.38;;
10811;SDS011;5458;51.496;7.334;2023-03-11T07:33:38;5.20;;;2.30;;
10811;SDS011;5458;51.496;7.334;2023-03-11T07:36:07;6.72;;;2.40;;
10811;SDS011;5458;51.496;7.334;2023-03-11T07:38:34;4.18;;;2.67;;
10811;SDS011;5458;51.496;7.334;2023-03-11T07:41:00;3.22;;;2.30;;
10811;SDS011;5458;51.496;7.334;2023-03-11T07:43:26;4.45;;;1.98;;
10811;SDS011;5458;51.496;7.334;2023-03-11T07:45:51;4.35;;;2.40;;
10811;SDS011;5458;51.496;7.334;2023-03-11T07:48:25;4.90;;;2.47;;
10811;SDS011;5458;51.496;7.334;2023-03-11T07:50:58;3.78;;;2.13;;
10811;SDS011;5458;51.496;7.334;2023-03-11T07:53:30;4.35;;;2.60;;
10811;SDS011;5458;51.496;7.334;2023-03-11T07:55:56;3.47;;;2.30;;
10811;SDS011;5458;51.496;7.334;2023-03-11T07:58:22;4.75;;;2.30;;
10811;SDS011;5458;51.496;7.334;2023-03-11T08:00:49;3.95;;;2.20;;
10811;SDS011;5458;51.496;7.334;2023-03-11T08:03:15;3.80;;;2.20;;
10811;SDS011;5458;51.496;7.334;2023-03-11T08:05:40;3.95;;;2.10;;
10811;SDS011;5458;51.496;7.334;2023-03-11T08:08:06;4.75;;;2.35;;
10811;SDS011;5458;51.496;7.334;2023-03-11T08:10:31;3.35;;;2.10;;
10811;SDS011;5458;51.496;7.334;2023-03-11T08:13:00;5.60;;;2.58;;
10811;SDS011;5458;51.496;7.334;2023-03-11T08:15:25;2.58;;;1.67;;
10811;SDS011;5458;51.496;7.334;2023-03-11T08:17:51;4.40;;;2.08;;
10811;SDS011;5458;51.496;7.334;2023-03-11T08:20:16;3.72;;;2.00;;
10811;SDS011;5458;51.496;7.334;2023-03-11T08:22:42;3.13;;;1.70;;
10811;SDS011;5458;51.496;7.334;2023-03-11T08:25:07;2.95;;;1.55;;
10811;SDS011;5458;51.496;7.334;2023-03-11T08:27:33;3.33;;;1.83;;
10811;SDS011;5458;51.496;7.334;2023-03-11T08:29:59;3.08;;;1.48;;
10811;SDS011;5458;51.496;7.334;2023-03-11T08:32:24;3.88;;;1.83;;
10811;SDS011;5458;51.496;7.334;2023-03-11T08:34:50;2.28;;;1.50;;
10811;SDS011;5458;51.496;7.334;2023-03-11T08:37:16;5.80;;;1.55;;
10811;SDS011;5458;51.496;7.334;2023-03-11T08:39:41;3.70;;;1.50;;
10811;SDS011;5458;51.496;7.334;2023-03-11T08:42:07;5.00;;;1.88;;
10811;SDS011;5458;51.496;7.334;2023-03-11T08:44:32;3.20;;;1.50;;
10811;SDS011;5458;51.496;7.334;2023-03-11T08:46:59;1.98;;;1.33;;
10811;SDS011;5458;51.496;7.334;2023-03-11T08:49:25;4.82;;;1.73;;
10811;SDS011;5458;51.496;7.334;2023-03-11T08:51:50;4.50;;;1.75;;
10811;SDS011;5458;51.496;7.334;2023-03-11T08:54:16;2.00;;;1.42;;
10811;SDS011;5458;51.496;7.334;2023-03-11T08:56:42;3.80;;;1.85;;
10811;SDS011;5458;51.496;7.334;2023-03-11T08:59:07;4.05;;;1.83;;
10811;SDS011;5458;51.496;7.334;2023-03-11T09:01:33;2.22;;;1.85;;
10811;SDS011;5458;51.496;7.334;2023-03-11T09:03:58;4.63;;;1.33;;
10811;SDS011;5458;51.496;7.334;2023-03-11T09:06:24;3.92;;;1.60;;
10811;SDS011;5458;51.496;7.334;2023-03-11T09:08:50;3.30;;;1.25;;
10811;SDS011;5458;51.496;7.334;2023-03-11T09:11:15;4.30;;;2.15;;
10811;SDS011;5458;51.496;7.334;2023-03-11T09:13:42;4.97;;;1.50;;
10811;SDS011;5458;51.496;7.334;2023-03-11T09:16:10;5.22;;;1.52;;
10811;SDS011;5458;51.496;7.334;2023-03-11T09:18:37;6.20;;;1.95;;
10811;SDS011;5458;51.496;7.334;2023-03-11T09:21:03;4.60;;;1.20;;
10811;SDS011;5458;51.496;7.334;2023-03-11T09:23:29;2.70;;;1.55;;
10811;SDS011;5458;51.496;7.334;2023-03-11T09:25:54;2.78;;;1.52;;
10811;SDS011;5458;51.496;7.334;2023-03-11T09:28:20;3.13;;;1.25;;
10811;SDS011;5458;51.496;7.334;2023-03-11T09:30:45;2.92;;;1.23;;
10811;SDS011;5458;51.496;7.334;2023-03-11T09:33:11;3.50;;;1.27;;
10811;SDS011;5458;51.496;7.334;2023-03-11T09:35:37;3.35;;;1.25;;
10811;SDS011;5458;51.496;7.334;2023-03-11T09:38:03;4.25;;;1.20;;
10811;SDS011;5458;51.496;7.334;2023-03-11T09:40:33;4.53;;;1.50;;
10811;SDS011;5458;51.496;7.334;2023-03-11T09:46:46;1.55;;;1.00;;
10811;SDS011;5458;51.496;7.334;2023-03-11T09:52:09;4.00;;;0.88;;
10811;SDS011;5458;51.496;7.334;2023-03-11T09:54:55;3.08;;;0.80;;
10811;SDS011;5458;51.496;7.334;2023-03-11T09:57:23;3.75;;;1.20;;
10811;SDS011;5458;51.496;7.334;2023-03-11T09:59:52;4.53;;;1.27;;
10811;SDS011;5458;51.496;7.334;2023-03-11T10:02:20;1.83;;;1.20;;
10811;SDS011;5458;51.496;7.334;2023-03-11T10:07:44;2.35;;;0.95;;
10811;SDS011;5458;51.496;7.334;2023-03-11T10:10:16;3.30;;;1.30;;
10811;SDS011;5458;51.496;7.334;2023-03-11T10:15:48;1.58;;;0.98;;
10811;SDS011;5458;51.496;7.334;2023-03-11T10:21:29;2.40;;;1.17;;
10811;SDS011;5458;51.496;7.334;2023-03-11T10:24:06;3.53;;;1.48;;
10811;SDS011;5458;51.496;7.334;2023-03-11T10:26:40;2.00;;;1.17;;
10811;SDS011;5458;51.496;7.334;2023-03-11T10:29:20;1.13;;;1.05;;
10811;SDS011;5458;51.496;7.334;2023-03-11T10:34:40;2.63;;;0.93;;
10811;SDS011;5458;51.496;7.334;2023-03-11T10:37:31;3.63;;;1.20;;
10811;SDS011;5458;51.496;7.334;2023-03-11T10:43:19;3.20;;;1.60;;
10811;SDS011;5458;51.496;7.334;2023-03-11T10:45:50;3.63;;;1.20;;
10811;SDS011;5458;51.496;7.334;2023-03-11T10:48:17;4.22;;;1.30;;
10811;SDS011;5458;51.496;7.334;2023-03-11T10:53:25;2.03;;;1.08;;
10811;SDS011;5458;51.496;7.334;2023-03-11T10:55:52;3.78;;;1.30;;
10811;SDS011;5458;51.496;7.334;2023-03-11T10:58:21;2.88;;;1.02;;
10811;SDS011;5458;51.496;7.334;2023-03-11T11:01:13;3.00;;;1.20;;
10811;SDS011;5458;51.496;7.334;2023-03-11T11:03:42;2.85;;;1.00;;
10811;SDS011;5458;51.496;7.334;2023-03-11T11:09:14;1.95;;;1.00;;
10811;SDS011;5458;51.496;7.334;2023-03-11T11:14:50;4.78;;;1.30;;
10811;SDS011;5458;51.496;7.334;2023-03-11T11:17:22;4.18;;;1.42;;
10811;SDS011;5458;51.496;7.334;2023-03-11T11:19:48;1.88;;;1.10;;
10811;SDS011;5458;51.496;7.334;2023-03-11T11:22:18;4.15;;;1.35;;
10811;SDS011;5458;51.496;7.334;2023-03-11T11:24:46;4.72;;;1.48;;
10811;SDS011;5458;51.496;7.334;2023-03-11T11:27:21;3.75;;;1.30;;
10811;SDS011;5458;51.496;7.334;2023-03-11T11:32:51;4.00;;;1.20;;
10811;SDS011;5458;51.496;7.334;2023-03-11T11:35:18;4.85;;;1.20;;
10811;SDS011;5458;51.496;7.334;2023-03-11T11:37:53;3.28;;;1.38;;
10811;SDS011;5458;51.496;7.334;2023-03-11T11:40:26;3.13;;;1.33;;
10811;SDS011;5458;51.496;7.334;2023-03-11T11:42:55;3.10;;;1.10;;
10811;SDS011;5458;51.496;7.334;2023-03-11T11:47:57;3.65;;;1.10;;
10811;SDS011;5458;51.496;7.334;2023-03-11T11:50:34;2.50;;;1.42;;
10811;SDS011;5458;51.496;7.334;2023-03-11T11:55:50;3.30;;;1.10;;
10811;SDS011;5458;51.496;7.334;2023-03-11T11:58:18;2.40;;;1.35;;
10811;SDS011;5458;51.496;7.334;2023-03-11T12:00:48;3.40;;;1.00;;
10811;SDS011;5458;51.496;7.334;2023-03-11T12:09:13;3.67;;;1.33;;
10811;SDS011;5458;51.496;7.334;2023-03-11T12:12:07;2.15;;;1.10;;
10811;SDS011;5458;51.496;7.334;2023-03-11T12:17:15;6.50;;;1.05;;
10811;SDS011;5458;51.496;7.334;2023-03-11T12:27:39;5.50;;;2.17;;
10811;SDS011;5458;51.496;7.334;2023-03-11T12:30:17;3.17;;;1.58;;
10811;SDS011;5458;51.496;7.334;2023-03-11T12:32:55;2.00;;;1.30;;
10811;SDS011;5458;51.496;7.334;2023-03-11T12:35:27;3.03;;;1.58;;
10811;SDS011;5458;51.496;7.334;2023-03-11T12:38:03;2.38;;;1.38;;
10811;SDS011;5458;51.496;7.334;2023-03-11T12:41:27;1.92;;;1.23;;
10811;SDS011;5458;51.496;7.334;2023-03-11T12:46:17;3.28;;;1.27;;
10811;SDS011;5458;51.496;7.334;2023-03-11T12:48:46;3.47;;;2.17;;
10811;SDS011;5458;51.496;7.334;2023-03-11T12:51:39;2.55;;;1.42;;
10811;SDS011;5458;51.496;7.334;2023-03-11T12:54:21;3.08;;;1.63;;
10811;SDS011;5458;51.496;7.334;2023-03-11T12:56:56;3.50;;;1.33;;
10811;SDS011;5458;51.496;7.334;2023-03-11T13:05:36;2.67;;;1.50;;
10811;SDS011;5458;51.496;7.334;2023-03-11T13:08:33;3.63;;;1.67;;
10811;SDS011;5458;51.496;7.334;2023-03-11T13:14:08;3.92;;;1.45;;
10811;SDS011;5458;51.496;7.334;2023-03-11T13:16:36;4.13;;;1.88;;
10811;SDS011;5458;51.496;7.334;2023-03-11T13:21:51;4.90;;;1.80;;
10811;SDS011;5458;51.496;7.334;2023-03-11T13:26:47;4.10;;;2.60;;
10811;SDS011;5458;51.496;7.334;2023-03-11T13:29:43;1.48;;;1.38;;
10811;SDS011;5458;51.496;7.334;2023-03-11T13:40:59;2.95;;;1.67;;
10811;SDS011;5458;51.496;7.334;2023-03-11T13:43:27;4.72;;;1.90;;
10811;SDS011;5458;51.496;7.334;2023-03-11T13:48:40;3.70;;;2.17;;
10811;SDS011;5458;51.496;7.334;2023-03-11T13:51:32;2.08;;;1.80;;
10811;SDS011;5458;51.496;7.334;2023-03-11T13:54:23;3.80;;;1.63;;
10811;SDS011;5458;51.496;7.334;2023-03-11T13:56:57;1.63;;;1.35;;
10811;SDS011;5458;51.496;7.334;2023-03-11T13:59:26;1.25;;;1.15;;
10811;SDS011;5458;51.496;7.334;2023-03-11T14:02:00;2.25;;;2.05;;
10811;SDS011;5458;51.496;7.334;2023-03-11T14:04:38;3.42;;;1.60;;
10811;SDS011;5458;51.496;7.334;2023-03-11T14:07:12;2.95;;;1.48;;
10811;SDS011;5458;51.496;7.334;2023-03-11T14:09:43;1.45;;;1.33;;
10811;SDS011;5458;51.496;7.334;2023-03-11T14:12:09;2.10;;;1.83;;
10811;SDS011;5458;51.496;7.334;2023-03-11T14:14:43;3.03;;;1.92;;
10811;SDS011;5458;51.496;7.334;2023-03-11T14:17:25;5.22;;;1.70;;
10811;SDS011;5458;51.496;7.334;2023-03-11T14:22:32;3.10;;;1.88;;
10811;SDS011;5458;51.496;7.334;2023-03-11T14:25:04;3.53;;;2.00;;
10811;SDS011;5458;51.496;7.334;2023-03-11T14:27:32;3.72;;;1.90;;
10811;SDS011;5458;51.496;7.334;2023-03-11T14:29:58;2.75;;;2.03;;
10811;SDS011;5458;51.496;7.334;2023-03-11T14:34:54;3.83;;;2.35;;
10811;SDS011;5458;51.496;7.334;2023-03-11T14:39:59;5.03;;;2.40;;
10811;SDS011;5458;51.496;7.334;2023-03-11T14:42:30;3.92;;;2.33;;
10811;SDS011;5458;51.496;7.334;2023-03-11T14:47:44;5.38;;;2.08;;
10811;SDS011;5458;51.496;7.334;2023-03-11T14:50:28;3.42;;;2.45;;
10811;SDS011;5458;51.496;7.334;2023-03-11T14:55:28;4.30;;;2.42;;
10811;SDS011;5458;51.496;7.334;2023-03-11T14:58:34;6.80;;;2.60;;
10811;SDS011;5458;51.496;7.334;2023-03-11T15:01:18;2.58;;;1.80;;
10811;SDS011;5458;51.496;7.334;2023-03-11T15:06:16;4.22;;;1.73;;
10811;SDS011;5458;51.496;7.334;2023-03-11T15:08:45;3.97;;;2.50;;
10811;SDS011;5458;51.496;7.334;2023-03-11T15:13:40;2.75;;;2.08;;
10811;SDS011;5458;51.496;7.334;2023-03-11T15:18:52;2.38;;;1.95;;
10811;SDS011;5458;51.496;7.334;2023-03-11T15:21:19;2.30;;;1.70;;
10811;SDS011;5458;51.496;7.334;2023-03-11T15:23:50;3.50;;;1.88;;
10811;SDS011;5458;51.496;7.334;2023-03-11T15:26:23;2.38;;;1.75;;
10811;SDS011;5458;51.496;7.334;2023-03-11T15:31:27;3.28;;;1.67;;
10811;SDS011;5458;51.496;7.334;2023-03-11T15:33:55;4.32;;;1.70;;
10811;SDS011;5458;51.496;7.334;2023-03-11T15:36:33;5.95;;;1.83;;
10811;SDS011;5458;51.496;7.334;2023-03-11T15:39:11;2.95;;;1.50;;
10811;SDS011;5458;51.496;7.334;2023-03-11T15:41:42;1.65;;;1.42;;
10811;SDS011;5458;51.496;7.334;2023-03-11T15:44:23;5.47;;;1.73;;
10811;SDS011;5458;51.496;7.334;2023-03-11T15:46:49;2.90;;;1.98;;
10811;SDS011;5458;51.496;7.334;2023-03-11T15:49:15;4.00;;;2.22;;
10811;SDS011;5458;51.496;7.334;2023-03-11T15:51:40;3.25;;;2.05;;
10811;SDS011;5458;51.496;7.334;2023-03-11T15:54:06;4.72;;;1.80;;
10811;SDS011;5458;51.496;7.334;2023-03-11T15:56:31;4.32;;;2.30;;
10811;SDS011;5458;51.496;7.334;2023-03-11T15:58:57;2.70;;;2.50;;
10811;SDS011;5458;51.496;7.334;2023-03-11T16:01:23;5.95;;;1.90;;
10811;SDS011;5458;51.496;7.334;2023-03-11T16:03:53;3.13;;;2.00;;
10811;SDS011;5458;51.496;7.334;2023-03-11T16:06:19;3.60;;;2.00;;
10811;SDS011;5458;51.496;7.334;2023-03-11T16:08:46;3.75;;;2.10;;
10811;SDS011;5458;51.496;7.334;2023-03-11T16:11:12;3.33;;;1.58;;
10811;SDS011;5458;51.496;7.334;2023-03-11T16:13:38;2.15;;;1.95;;
10811;SDS011;5458;51.496;7.334;2023-03-11T16:16:04;3.20;;;1.98;;
10811;SDS011;5458;51.496;7.334;2023-03-11T16:18:30;2.25;;;1.83;;
10811;SDS011;5458;51.496;7.334;2023-03-11T16:20:57;3.22;;;1.98;;
10811;SDS011;5458;51.496;7.334;2023-03-11T16:23:24;3.55;;;2.50;;
10811;SDS011;5458;51.496;7.334;2023-03-11T16:25:51;5.30;;;2.55;;
10811;SDS011;5458;51.496;7.334;2023-03-11T16:28:21;4.57;;;2.47;;
10811;SDS011;5458;51.496;7.334;2023-03-11T16:30:47;4.63;;;2.05;;
10811;SDS011;5458;51.496;7.334;2023-03-11T16:33:14;5.95;;;2.00;;
10811;SDS011;5458;51.496;7.334;2023-03-11T16:35:40;5.18;;;2.08;;
10811;SDS011;5458;51.496;7.334;2023-03-11T16:38:06;4.43;;;2.42;;
10811;SDS011;5458;51.496;7.334;2023-03-11T16:40:33;6.18;;;2.17;;
10811;SDS011;5458;51.496;7.334;2023-03-11T16:42:59;5.70;;;2.92;;
10811;SDS011;5458;51.496;7.334;2023-03-11T16:45:29;3.83;;;1.95;;
10811;SDS011;5458;51.496;7.334;2023-03-11T16:47:56;4.82;;;3.05;;
10811;SDS011;5458;51.496;7.334;2023-03-11T16:50:22;5.60;;;2.78;;
10811;SDS011;5458;51.496;7.334;2023-03-11T16:52:51;5.85;;;2.78;;
10811;SDS011;5458;51.496;7.334;2023-03-11T16:55:18;4.53;;;2.20;;
10811;SDS011;5458;51.496;7.334;2023-03-11T16:57:44;3.60;;;2.25;;
10811;SDS011;5458;51.496;7.334;2023-03-11T17:00:10;2.60;;;2.20;;
10811;SDS011;5458;51.496;7.334;2023-03-11T17:02:36;5.20;;;2.65;;